Washington, DC (20554)

4:06 AM EDT on September 01, 2014 (GMT -0400)
Logan Circle | Change Station
CLOSE
Current Station
Personal Weather Station
Location: Washington, DC
Elevation: 108 ft
Nearby Weather Stations

Elev 108 ft 38.91 °N, 77.03 °W | Updated 7 seconds ago

Mostly Cloudy
Mostly Cloudy
73.8 °F
Feels Like 73 °F
N
0.0
Wind Variable Wind from North
Gusts 0.0 mph

Today
High -- | Low -- °F
--% Chance of Precip.
Yesterday
High -- | Low -- °F
Precip. -- in
6:37 AM 7:38 PM
Waxing Crescent, 38% visible
Pressure 30.01 in
Visibility 10.0 miles
Clouds Few 9000 ft
Mostly Cloudy 14000 ft
Mostly Cloudy 25000 ft
Heat Index 73 °F
Dew Point 70 °F
Humidity 87%
Rainfall 0.00 in
Snow Depth Not available.
UV 0 out of 12
Pollen 9.40 out of 12
Air Quality Not available.
Flu Activity Not available.
METAR KDCA 010752Z 18003KT 10SM FEW090 BKN140 BKN250 25/22 A3001 RMK AO2 SLP162 OCNL LTGICCG DSNT SE CB DSNT SE MOV NE T02500217

More Conditions Fewer Conditions

Pressure 30.01 in
Visibility 10.0 miles
Clouds Few 9000 ft
Mostly Cloudy 14000 ft
Mostly Cloudy 25000 ft
Heat Index 73 °F
Dew Point 70 °F
Humidity 87%
Rainfall 0.00 in
Snow Depth Not available.
UV 0 out of 12
Pollen 9.40 out of 12
Air Quality Not available.
Flu Activity Not available.
METAR KDCA 010752Z 18003KT 10SM FEW090 BKN140 BKN250 25/22 A3001 RMK AO2 SLP162 OCNL LTGICCG DSNT SE CB DSNT SE MOV NE T02500217

More Conditions Fewer Conditions

10-Day Weather Forecast

Almanac

Astronomy

Sep. 01, 2014 Rise Set
Actual Time 6:37 AM EDT 7:38 PM EDT
Civil Twilight 6:09 AM EDT 8:05 PM EDT
Nautical Twilight 5:37 AM EDT 8:38 PM EDT
Astronomical Twilight 5:03 AM EDT 9:11 PM EDT
Moon 1:17 PM EDT 11:41 PM EDT
Length of Visible Light 13h 56m
Length of Day
13h 01m
Tomorrow will be 2m 26s shorter.
Waxing Crescent, 38% of the Moon is Illuminated
Today
Waxing Crescent
Sep 2
First Quarter
Sep 8
Full
Sep 15
Last Quarter
Sep 24
New

Today's Extremes

State Highs State Lows

Community

WunderPhotos

Upload Photos

1,749,175 photos uploaded!

Nearby

Snow Depth

Station Depth Elevation
No new snow has been reported.

Earthquake Activity

City Distance Mag. Time & Date
No recent earthquake activity has been reported nearby.
Minimum magnitude displayed is 2.5.

Coastal Water Temperatures

Place Temperature
Washington, DC 80.1 °F
Baltimore, MD 81.0 °F
Solomons Island, MD 80.1 °F

Nearby Weather Stations